首页
METAR-TAF:

METAR-TAF

机场 :

阿卡普尔科, 墨西哥

纬度: 16-46N, 经度: 099-45W, 海拔: 5米

当前天气观测

该预报发布于1小时和13分钟前的05:44 UTC
静风
温度 26°C
湿度 84%
气压 1012 hPa
能見度: 8.0公里
散云层高于30000英尺

METAR: MMAA 190544Z 00000KT 5SM SCT300 26/23 A2988 RMK SLP118 52022 902 8/002 HZY

时间: 01:57 (06:57 UTC)

预报

该预报发布于2小时和31分钟前的04:26 UTC
预报有效从19日的 06点(UTC)到 20日的 12点(UTC)
风速节,风向
能見度: 8.0公里
散云层高于30000英尺
从 19日的 1800点(UTC)
风速10节,风向西
能見度: 8.0公里
散云层高于30000英尺
从 20日的 0400点(UTC)
风速5节,风向西转西南
能見度: 9.7公里
散云层高于30000英尺

TAF: MMAA 190426Z 1906/2012 00000KT 5SM HZ SCT300 TX30/1919Z TN26/1912Z FM191800 26010KT 5SM HZ SCT300 FM200400 24005KT 6SM HZ SCT300

超过4000个机场的气象观测和天气预报(METAR&TAF报告)。

可查询的气象台以黄色和红色小点在地图上表示。

将鼠标移到小点上方,可查看气象台名称。

然后点击查看天气观测和预报。

如需切换地图:点击带黑十字的绿色按钮放大地图;点击带横线的绿色按钮缩小地图;或者点击绿色箭头查看邻近地区的地图。


METAR-TAF: